Hatteras, North Carolina
Current Conditions -  °F | °C
As of 7:51 PM on Thursday 27 Nov 2014 (Local Time) from KHSE Reporting Station
Scattered Clouds Scattered Clouds  
Wind Chill: 38°   Ceiling: Unl
Heat Index: 44°   Visibility: 10mi
Dew Point: 39°   Wind: 13mph
Humidity: 82%   Direction: 330°NNW
Pressure: 30.11"   Gusts: 21mph
Location:  35.22°N, 75.69°W
Report Text: KHSE 280051Z AUTO 33011G18KT 10SM SCT020 07/04 A3011 RMK AO2 SLP194 T00670039 TSNO
Loading
Personal Weather Stations






























Interactive Weather Map New forecast layout! Learn more

10-Day Weather Forecast

Advertisements
Track Severe Weather on mobile